Terminal Aerodrome Forecast
Issued by NWS Sioux Falls, SD

Home | Current Version | Previous Version | Graphics & Text | Print | Product List | Glossary On
Versions: 1 2 3 4 5 6 7 8 9 10 11 12 13 14 15 16 17 18 19 20 21 22 23 24 25 26 27 28 29
000
FTUS43 KFSD 092320
TAFSUX
TAF
KSUX 092320Z 1000/1024 32010KT P6SM SCT050 SCT120
     FM100400 VRB04KT P6SM SCT040 BKN080
     FM101300 12007KT 4SM -SN OVC035
     FM101600 11006KT 2SM -SN BR OVC020
     FM101800 12010KT 4SM BR OVC020=

USA.gov is the U.S. government's official web portal to all federal, state and local government web resources and services.